sensor_id;sensor_type;location;lat;lon;timestamp;P1;durP1;ratioP1;P2;durP2;ratioP2
76035;SDS011;64732;56.314;44.068;2022-10-31T00:01:21;1.60;;;0.70;;
76035;SDS011;64732;56.314;44.068;2022-10-31T00:03:43;0.75;;;0.38;;
76035;SDS011;64732;56.314;44.068;2022-10-31T00:06:04;1.35;;;0.55;;
76035;SDS011;64732;56.314;44.068;2022-10-31T00:08:28;1.52;;;0.70;;
76035;SDS011;64732;56.314;44.068;2022-10-31T00:10:49;1.30;;;0.70;;
76035;SDS011;64732;56.314;44.068;2022-10-31T00:13:10;1.23;;;0.52;;
76035;SDS011;64732;56.314;44.068;2022-10-31T00:15:32;2.33;;;1.00;;
76035;SDS011;64732;56.314;44.068;2022-10-31T00:17:53;1.60;;;0.70;;
76035;SDS011;64732;56.314;44.068;2022-10-31T00:20:14;1.50;;;0.70;;
76035;SDS011;64732;56.314;44.068;2022-10-31T00:22:35;1.73;;;0.77;;
76035;SDS011;64732;56.314;44.068;2022-10-31T00:24:58;2.00;;;0.93;;
76035;SDS011;64732;56.314;44.068;2022-10-31T00:27:19;1.25;;;0.60;;
76035;SDS011;64732;56.314;44.068;2022-10-31T00:29:40;0.82;;;0.60;;
76035;SDS011;64732;56.314;44.068;2022-10-31T00:32:01;1.50;;;0.80;;
76035;SDS011;64732;56.314;44.068;2022-10-31T00:34:22;2.95;;;1.05;;
76035;SDS011;64732;56.314;44.068;2022-10-31T00:36:43;2.58;;;1.05;;
76035;SDS011;64732;56.314;44.068;2022-10-31T00:39:04;1.90;;;0.90;;
76035;SDS011;64732;56.314;44.068;2022-10-31T00:41:28;1.55;;;0.80;;
76035;SDS011;64732;56.314;44.068;2022-10-31T00:43:49;1.70;;;0.95;;
76035;SDS011;64732;56.314;44.068;2022-10-31T00:46:10;1.50;;;0.90;;
76035;SDS011;64732;56.314;44.068;2022-10-31T00:48:30;2.33;;;1.00;;
76035;SDS011;64732;56.314;44.068;2022-10-31T00:50:51;2.17;;;1.02;;
76035;SDS011;64732;56.314;44.068;2022-10-31T00:53:12;1.73;;;1.00;;
76035;SDS011;64732;56.314;44.068;2022-10-31T00:55:33;2.30;;;1.30;;
76035;SDS011;64732;56.314;44.068;2022-10-31T00:57:57;1.98;;;0.93;;
76035;SDS011;64732;56.314;44.068;2022-10-31T01:00:18;3.60;;;0.95;;
76035;SDS011;64732;56.314;44.068;2022-10-31T01:02:39;1.70;;;1.10;;
76035;SDS011;64732;56.314;44.068;2022-10-31T01:05:00;1.85;;;1.00;;
76035;SDS011;64732;56.314;44.068;2022-10-31T01:07:20;2.20;;;1.05;;
76035;SDS011;64732;56.314;44.068;2022-10-31T01:09:41;2.50;;;1.58;;
76035;SDS011;64732;56.314;44.068;2022-10-31T01:12:03;2.10;;;1.13;;
76035;SDS011;64732;56.314;44.068;2022-10-31T01:14:26;2.15;;;1.30;;
76035;SDS011;64732;56.314;44.068;2022-10-31T01:16:47;2.03;;;1.10;;
76035;SDS011;64732;56.314;44.068;2022-10-31T01:19:08;2.30;;;1.08;;
76035;SDS011;64732;56.314;44.068;2022-10-31T01:21:29;2.45;;;1.00;;
76035;SDS011;64732;56.314;44.068;2022-10-31T01:23:50;2.00;;;1.10;;
76035;SDS011;64732;56.314;44.068;2022-10-31T01:26:13;2.30;;;1.10;;
76035;SDS011;64732;56.314;44.068;2022-10-31T01:28:39;2.80;;;1.30;;
76035;SDS011;64732;56.314;44.068;2022-10-31T01:31:06;3.38;;;1.08;;
76035;SDS011;64732;56.314;44.068;2022-10-31T01:33:28;1.63;;;0.75;;
76035;SDS011;64732;56.314;44.068;2022-10-31T01:35:49;3.55;;;1.35;;
76035;SDS011;64732;56.314;44.068;2022-10-31T01:38:10;2.08;;;1.00;;
76035;SDS011;64732;56.314;44.068;2022-10-31T01:40:31;3.28;;;1.42;;
76035;SDS011;64732;56.314;44.068;2022-10-31T01:42:52;2.85;;;1.25;;
76035;SDS011;64732;56.314;44.068;2022-10-31T01:45:19;2.40;;;0.90;;
76035;SDS011;64732;56.314;44.068;2022-10-31T01:47:44;2.30;;;1.25;;
76035;SDS011;64732;56.314;44.068;2022-10-31T01:50:09;4.97;;;1.05;;
76035;SDS011;64732;56.314;44.068;2022-10-31T01:52:35;3.10;;;1.45;;
76035;SDS011;64732;56.314;44.068;2022-10-31T01:54:58;2.47;;;1.30;;
76035;SDS011;64732;56.314;44.068;2022-10-31T01:57:21;2.38;;;1.27;;
76035;SDS011;64732;56.314;44.068;2022-10-31T01:59:42;2.40;;;1.13;;
76035;SDS011;64732;56.314;44.068;2022-10-31T02:02:05;2.97;;;1.35;;
76035;SDS011;64732;56.314;44.068;2022-10-31T02:04:28;2.53;;;1.40;;
76035;SDS011;64732;56.314;44.068;2022-10-31T02:06:51;3.13;;;1.30;;
76035;SDS011;64732;56.314;44.068;2022-10-31T02:09:15;2.95;;;1.25;;
76035;SDS011;64732;56.314;44.068;2022-10-31T02:11:40;3.67;;;1.73;;
76035;SDS011;64732;56.314;44.068;2022-10-31T02:14:02;2.50;;;1.33;;
76035;SDS011;64732;56.314;44.068;2022-10-31T02:16:43;3.00;;;1.52;;
76035;SDS011;64732;56.314;44.068;2022-10-31T02:19:04;3.10;;;1.58;;
76035;SDS011;64732;56.314;44.068;2022-10-31T02:21:33;2.88;;;1.73;;
76035;SDS011;64732;56.314;44.068;2022-10-31T02:24:12;5.43;;;1.58;;
76035;SDS011;64732;56.314;44.068;2022-10-31T02:26:52;2.45;;;1.30;;
76035;SDS011;64732;56.314;44.068;2022-10-31T02:32:11;3.50;;;1.38;;
76035;SDS011;64732;56.314;44.068;2022-10-31T02:34:34;2.63;;;1.33;;
76035;SDS011;64732;56.314;44.068;2022-10-31T02:36:57;2.92;;;1.50;;
76035;SDS011;64732;56.314;44.068;2022-10-31T02:39:23;4.18;;;0.93;;
76035;SDS011;64732;56.314;44.068;2022-10-31T02:41:46;2.97;;;1.42;;
76035;SDS011;64732;56.314;44.068;2022-10-31T02:44:11;2.72;;;1.52;;
76035;SDS011;64732;56.314;44.068;2022-10-31T02:46:38;4.60;;;1.73;;
76035;SDS011;64732;56.314;44.068;2022-10-31T02:49:09;3.92;;;1.60;;
76035;SDS011;64732;56.314;44.068;2022-10-31T02:51:31;2.40;;;1.27;;
76035;SDS011;64732;56.314;44.068;2022-10-31T02:53:52;2.47;;;1.27;;
76035;SDS011;64732;56.314;44.068;2022-10-31T02:56:14;3.80;;;1.60;;
76035;SDS011;64732;56.314;44.068;2022-10-31T02:58:38;2.28;;;1.20;;
76035;SDS011;64732;56.314;44.068;2022-10-31T03:01:05;2.53;;;1.17;;
76035;SDS011;64732;56.314;44.068;2022-10-31T03:03:40;3.90;;;1.75;;
76035;SDS011;64732;56.314;44.068;2022-10-31T03:06:15;4.18;;;1.50;;
76035;SDS011;64732;56.314;44.068;2022-10-31T03:08:41;5.55;;;2.22;;
76035;SDS011;64732;56.314;44.068;2022-10-31T03:11:07;4.55;;;2.00;;
76035;SDS011;64732;56.314;44.068;2022-10-31T03:13:30;2.35;;;1.20;;
76035;SDS011;64732;56.314;44.068;2022-10-31T03:15:55;2.50;;;1.50;;
76035;SDS011;64732;56.314;44.068;2022-10-31T03:18:21;4.13;;;1.80;;
76035;SDS011;64732;56.314;44.068;2022-10-31T03:20:45;2.47;;;1.20;;
76035;SDS011;64732;56.314;44.068;2022-10-31T03:23:14;3.17;;;1.70;;
76035;SDS011;64732;56.314;44.068;2022-10-31T03:25:35;4.53;;;1.60;;
76035;SDS011;64732;56.314;44.068;2022-10-31T03:27:57;4.13;;;1.92;;
76035;SDS011;64732;56.314;44.068;2022-10-31T03:30:19;4.30;;;1.70;;
76035;SDS011;64732;56.314;44.068;2022-10-31T03:32:41;4.32;;;1.70;;
76035;SDS011;64732;56.314;44.068;2022-10-31T03:35:05;3.78;;;1.65;;
76035;SDS011;64732;56.314;44.068;2022-10-31T03:37:29;3.05;;;1.60;;
76035;SDS011;64732;56.314;44.068;2022-10-31T03:39:54;4.18;;;1.55;;
76035;SDS011;64732;56.314;44.068;2022-10-31T03:42:16;3.65;;;1.65;;
76035;SDS011;64732;56.314;44.068;2022-10-31T03:44:44;3.80;;;2.15;;
76035;SDS011;64732;56.314;44.068;2022-10-31T03:47:07;5.10;;;2.00;;
76035;SDS011;64732;56.314;44.068;2022-10-31T03:49:29;4.30;;;2.00;;
76035;SDS011;64732;56.314;44.068;2022-10-31T03:51:51;3.50;;;1.90;;
76035;SDS011;64732;56.314;44.068;2022-10-31T03:54:17;3.35;;;1.75;;
76035;SDS011;64732;56.314;44.068;2022-10-31T03:56:44;2.72;;;1.50;;
76035;SDS011;64732;56.314;44.068;2022-10-31T03:59:11;3.13;;;1.63;;
76035;SDS011;64732;56.314;44.068;2022-10-31T04:01:37;2.88;;;1.73;;
76035;SDS011;64732;56.314;44.068;2022-10-31T04:04:05;3.22;;;1.70;;
76035;SDS011;64732;56.314;44.068;2022-10-31T04:06:27;3.50;;;1.77;;
76035;SDS011;64732;56.314;44.068;2022-10-31T04:08:49;3.50;;;2.05;;
76035;SDS011;64732;56.314;44.068;2022-10-31T04:11:13;4.25;;;2.00;;
76035;SDS011;64732;56.314;44.068;2022-10-31T04:13:38;3.97;;;1.75;;
76035;SDS011;64732;56.314;44.068;2022-10-31T04:16:00;6.70;;;2.35;;
76035;SDS011;64732;56.314;44.068;2022-10-31T04:18:21;4.50;;;1.83;;
76035;SDS011;64732;56.314;44.068;2022-10-31T04:20:43;3.25;;;1.65;;
76035;SDS011;64732;56.314;44.068;2022-10-31T04:23:04;3.35;;;1.40;;
76035;SDS011;64732;56.314;44.068;2022-10-31T04:25:25;2.95;;;1.60;;
76035;SDS011;64732;56.314;44.068;2022-10-31T04:27:46;3.28;;;1.80;;
76035;SDS011;64732;56.314;44.068;2022-10-31T04:30:10;2.78;;;1.42;;
76035;SDS011;64732;56.314;44.068;2022-10-31T04:32:31;2.83;;;1.45;;
76035;SDS011;64732;56.314;44.068;2022-10-31T04:34:52;3.97;;;1.85;;
76035;SDS011;64732;56.314;44.068;2022-10-31T04:37:13;3.80;;;1.90;;
76035;SDS011;64732;56.314;44.068;2022-10-31T04:39:34;3.60;;;2.00;;
76035;SDS011;64732;56.314;44.068;2022-10-31T04:41:55;2.80;;;1.38;;
76035;SDS011;64732;56.314;44.068;2022-10-31T04:44:16;3.65;;;2.00;;
76035;SDS011;64732;56.314;44.068;2022-10-31T04:46:39;3.83;;;1.73;;
76035;SDS011;64732;56.314;44.068;2022-10-31T04:49:00;3.08;;;1.58;;
76035;SDS011;64732;56.314;44.068;2022-10-31T04:51:21;2.25;;;1.42;;
76035;SDS011;64732;56.314;44.068;2022-10-31T04:53:42;3.72;;;2.20;;
76035;SDS011;64732;56.314;44.068;2022-10-31T04:56:03;3.55;;;2.22;;
76035;SDS011;64732;56.314;44.068;2022-10-31T04:58:24;4.10;;;1.73;;
76035;SDS011;64732;56.314;44.068;2022-10-31T05:00:45;3.28;;;1.65;;
76035;SDS011;64732;56.314;44.068;2022-10-31T05:03:09;4.03;;;2.20;;
76035;SDS011;64732;56.314;44.068;2022-10-31T05:05:30;2.92;;;1.17;;
76035;SDS011;64732;56.314;44.068;2022-10-31T05:07:51;2.60;;;1.65;;
76035;SDS011;64732;56.314;44.068;2022-10-31T05:10:13;3.13;;;1.40;;
76035;SDS011;64732;56.314;44.068;2022-10-31T05:12:35;3.22;;;1.80;;
76035;SDS011;64732;56.314;44.068;2022-10-31T05:14:56;2.53;;;1.55;;
76035;SDS011;64732;56.314;44.068;2022-10-31T05:17:17;3.35;;;1.83;;
76035;SDS011;64732;56.314;44.068;2022-10-31T05:19:40;3.45;;;1.65;;
76035;SDS011;64732;56.314;44.068;2022-10-31T05:22:01;4.32;;;2.17;;
76035;SDS011;64732;56.314;44.068;2022-10-31T05:24:22;3.03;;;1.35;;
76035;SDS011;64732;56.314;44.068;2022-10-31T05:26:43;2.85;;;1.20;;
76035;SDS011;64732;56.314;44.068;2022-10-31T05:29:04;3.67;;;1.73;;
76035;SDS011;64732;56.314;44.068;2022-10-31T05:31:25;3.33;;;1.85;;
76035;SDS011;64732;56.314;44.068;2022-10-31T05:33:46;4.78;;;2.22;;
76035;SDS011;64732;56.314;44.068;2022-10-31T05:36:09;3.70;;;2.17;;
76035;SDS011;64732;56.314;44.068;2022-10-31T05:38:30;5.28;;;2.03;;
76035;SDS011;64732;56.314;44.068;2022-10-31T05:40:53;3.35;;;2.03;;
76035;SDS011;64732;56.314;44.068;2022-10-31T05:43:14;4.22;;;2.35;;
76035;SDS011;64732;56.314;44.068;2022-10-31T05:45:35;5.47;;;2.72;;
76035;SDS011;64732;56.314;44.068;2022-10-31T05:47:57;4.80;;;2.88;;
76035;SDS011;64732;56.314;44.068;2022-10-31T05:50:19;4.28;;;2.13;;
76035;SDS011;64732;56.314;44.068;2022-10-31T05:52:43;3.08;;;1.40;;
76035;SDS011;64732;56.314;44.068;2022-10-31T05:55:04;2.17;;;1.27;;
76035;SDS011;64732;56.314;44.068;2022-10-31T05:57:25;2.63;;;1.30;;
76035;SDS011;64732;56.314;44.068;2022-10-31T05:59:46;2.30;;;1.33;;
76035;SDS011;64732;56.314;44.068;2022-10-31T06:02:07;2.80;;;1.33;;
76035;SDS011;64732;56.314;44.068;2022-10-31T06:04:28;2.95;;;1.00;;
76035;SDS011;64732;56.314;44.068;2022-10-31T06:06:49;1.92;;;0.80;;
76035;SDS011;64732;56.314;44.068;2022-10-31T06:09:12;1.75;;;0.85;;
76035;SDS011;64732;56.314;44.068;2022-10-31T06:11:33;3.05;;;1.42;;
76035;SDS011;64732;56.314;44.068;2022-10-31T06:13:54;2.25;;;1.27;;
76035;SDS011;64732;56.314;44.068;2022-10-31T06:16:15;3.15;;;1.42;;
76035;SDS011;64732;56.314;44.068;2022-10-31T06:18:36;4.40;;;1.27;;
76035;SDS011;64732;56.314;44.068;2022-10-31T06:20:57;1.83;;;0.82;;
76035;SDS011;64732;56.314;44.068;2022-10-31T06:23:18;3.75;;;1.80;;
76035;SDS011;64732;56.314;44.068;2022-10-31T06:25:41;4.05;;;1.70;;
76035;SDS011;64732;56.314;44.068;2022-10-31T06:28:02;2.60;;;1.40;;
76035;SDS011;64732;56.314;44.068;2022-10-31T06:30:23;4.22;;;1.80;;
76035;SDS011;64732;56.314;44.068;2022-10-31T06:32:45;3.03;;;1.80;;
76035;SDS011;64732;56.314;44.068;2022-10-31T06:35:06;3.97;;;1.75;;
76035;SDS011;64732;56.314;44.068;2022-10-31T06:37:27;2.80;;;1.35;;
76035;SDS011;64732;56.314;44.068;2022-10-31T06:39:48;3.15;;;1.73;;
76035;SDS011;64732;56.314;44.068;2022-10-31T06:42:11;3.53;;;1.48;;
76035;SDS011;64732;56.314;44.068;2022-10-31T06:44:32;4.20;;;2.08;;
76035;SDS011;64732;56.314;44.068;2022-10-31T06:46:53;3.35;;;1.27;;
76035;SDS011;64732;56.314;44.068;2022-10-31T06:49:14;3.83;;;1.40;;
76035;SDS011;64732;56.314;44.068;2022-10-31T06:51:35;4.18;;;2.05;;
76035;SDS011;64732;56.314;44.068;2022-10-31T06:53:56;3.22;;;1.50;;
76035;SDS011;64732;56.314;44.068;2022-10-31T06:56:17;2.30;;;1.40;;
76035;SDS011;64732;56.314;44.068;2022-10-31T06:58:40;2.72;;;1.63;;
76035;SDS011;64732;56.314;44.068;2022-10-31T07:01:01;3.65;;;1.95;;
76035;SDS011;64732;56.314;44.068;2022-10-31T07:03:22;2.95;;;1.42;;
76035;SDS011;64732;56.314;44.068;2022-10-31T07:05:43;3.35;;;1.60;;
76035;SDS011;64732;56.314;44.068;2022-10-31T07:08:05;3.53;;;1.52;;
76035;SDS011;64732;56.314;44.068;2022-10-31T07:10:29;3.45;;;1.30;;
76035;SDS011;64732;56.314;44.068;2022-10-31T07:12:53;2.53;;;1.27;;
76035;SDS011;64732;56.314;44.068;2022-10-31T07:15:17;3.55;;;1.38;;
76035;SDS011;64732;56.314;44.068;2022-10-31T07:17:38;4.03;;;1.40;;
76035;SDS011;64732;56.314;44.068;2022-10-31T07:19:59;2.67;;;1.30;;
76035;SDS011;64732;56.314;44.068;2022-10-31T07:22:20;4.55;;;1.95;;
76035;SDS011;64732;56.314;44.068;2022-10-31T07:24:41;2.58;;;1.67;;
76035;SDS011;64732;56.314;44.068;2022-10-31T07:27:02;2.05;;;1.08;;
76035;SDS011;64732;56.314;44.068;2022-10-31T07:29:23;5.30;;;1.60;;
76035;SDS011;64732;56.314;44.068;2022-10-31T07:31:47;3.10;;;1.60;;
76035;SDS011;64732;56.314;44.068;2022-10-31T07:34:08;5.70;;;2.30;;
76035;SDS011;64732;56.314;44.068;2022-10-31T07:36:29;2.75;;;1.23;;
76035;SDS011;64732;56.314;44.068;2022-10-31T07:38:50;3.70;;;1.58;;
76035;SDS011;64732;56.314;44.068;2022-10-31T07:41:11;4.07;;;2.33;;
76035;SDS011;64732;56.314;44.068;2022-10-31T07:43:32;3.10;;;1.63;;
76035;SDS011;64732;56.314;44.068;2022-10-31T07:45:53;2.40;;;1.20;;
76035;SDS011;64732;56.314;44.068;2022-10-31T07:48:16;2.88;;;1.50;;
76035;SDS011;64732;56.314;44.068;2022-10-31T07:50:37;4.38;;;1.45;;
76035;SDS011;64732;56.314;44.068;2022-10-31T07:52:59;2.95;;;1.40;;
76035;SDS011;64732;56.314;44.068;2022-10-31T07:55:20;2.95;;;1.58;;
76035;SDS011;64732;56.314;44.068;2022-10-31T07:57:41;2.60;;;1.40;;
76035;SDS011;64732;56.314;44.068;2022-10-31T08:00:02;1.77;;;1.20;;
76035;SDS011;64732;56.314;44.068;2022-10-31T08:02:24;2.78;;;1.17;;
76035;SDS011;64732;56.314;44.068;2022-10-31T08:04:47;3.47;;;1.52;;
76035;SDS011;64732;56.314;44.068;2022-10-31T08:07:09;1.90;;;0.90;;
76035;SDS011;64732;56.314;44.068;2022-10-31T08:09:30;4.25;;;1.15;;
76035;SDS011;64732;56.314;44.068;2022-10-31T08:11:51;3.22;;;1.38;;
76035;SDS011;64732;56.314;44.068;2022-10-31T08:14:13;2.05;;;1.00;;
76035;SDS011;64732;56.314;44.068;2022-10-31T08:16:34;2.63;;;1.30;;
76035;SDS011;64732;56.314;44.068;2022-10-31T08:18:57;3.80;;;1.88;;
76035;SDS011;64732;56.314;44.068;2022-10-31T08:21:21;2.45;;;1.45;;
76035;SDS011;64732;56.314;44.068;2022-10-31T08:23:42;3.35;;;1.50;;
76035;SDS011;64732;56.314;44.068;2022-10-31T08:26:03;3.10;;;1.10;;
76035;SDS011;64732;56.314;44.068;2022-10-31T08:28:24;4.00;;;1.77;;
76035;SDS011;64732;56.314;44.068;2022-10-31T08:30:45;4.70;;;0.80;;
76035;SDS011;64732;56.314;44.068;2022-10-31T08:33:08;3.08;;;1.42;;
76035;SDS011;64732;56.314;44.068;2022-10-31T08:35:30;3.33;;;1.45;;
76035;SDS011;64732;56.314;44.068;2022-10-31T08:37:55;3.65;;;1.60;;
76035;SDS011;64732;56.314;44.068;2022-10-31T08:40:16;5.20;;;1.75;;
76035;SDS011;64732;56.314;44.068;2022-10-31T08:42:37;4.25;;;1.30;;
76035;SDS011;64732;56.314;44.068;2022-10-31T08:44:58;2.90;;;1.40;;
76035;SDS011;64732;56.314;44.068;2022-10-31T08:47:18;2.50;;;1.48;;
76035;SDS011;64732;56.314;44.068;2022-10-31T08:49:39;2.78;;;1.48;;
76035;SDS011;64732;56.314;44.068;2022-10-31T08:52:00;3.03;;;1.33;;
76035;SDS011;64732;56.314;44.068;2022-10-31T08:54:24;5.40;;;1.63;;
76035;SDS011;64732;56.314;44.068;2022-10-31T08:56:45;1.80;;;0.90;;
76035;SDS011;64732;56.314;44.068;2022-10-31T08:59:06;2.08;;;1.20;;
76035;SDS011;64732;56.314;44.068;2022-10-31T09:01:26;3.63;;;1.45;;
76035;SDS011;64732;56.314;44.068;2022-10-31T09:03:47;3.60;;;1.13;;
76035;SDS011;64732;56.314;44.068;2022-10-31T09:06:08;3.17;;;1.30;;
76035;SDS011;64732;56.314;44.068;2022-10-31T09:08:30;3.00;;;1.00;;
76035;SDS011;64732;56.314;44.068;2022-10-31T09:10:55;4.70;;;1.38;;
76035;SDS011;64732;56.314;44.068;2022-10-31T09:13:17;3.10;;;1.42;;
76035;SDS011;64732;56.314;44.068;2022-10-31T09:15:39;2.25;;;1.02;;
76035;SDS011;64732;56.314;44.068;2022-10-31T09:18:01;2.33;;;1.20;;
76035;SDS011;64732;56.314;44.068;2022-10-31T09:20:22;2.70;;;1.00;;
76035;SDS011;64732;56.314;44.068;2022-10-31T09:22:43;7.13;;;1.33;;
76035;SDS011;64732;56.314;44.068;2022-10-31T09:25:04;2.17;;;1.17;;
76035;SDS011;64732;56.314;44.068;2022-10-31T09:27:28;1.52;;;0.68;;
76035;SDS011;64732;56.314;44.068;2022-10-31T09:29:49;2.70;;;1.20;;
76035;SDS011;64732;56.314;44.068;2022-10-31T09:32:10;2.35;;;1.33;;
76035;SDS011;64732;56.314;44.068;2022-10-31T09:34:32;3.15;;;1.48;;
76035;SDS011;64732;56.314;44.068;2022-10-31T09:36:53;3.53;;;1.38;;
76035;SDS011;64732;56.314;44.068;2022-10-31T09:39:14;2.13;;;1.35;;
76035;SDS011;64732;56.314;44.068;2022-10-31T09:41:41;2.83;;;1.40;;
76035;SDS011;64732;56.314;44.068;2022-10-31T09:44:24;3.08;;;1.60;;
76035;SDS011;64732;56.314;44.068;2022-10-31T09:46:52;3.38;;;1.73;;
76035;SDS011;64732;56.314;44.068;2022-10-31T09:49:24;2.90;;;1.40;;
76035;SDS011;64732;56.314;44.068;2022-10-31T09:51:54;2.83;;;1.70;;
76035;SDS011;64732;56.314;44.068;2022-10-31T09:54:18;4.10;;;1.27;;
76035;SDS011;64732;56.314;44.068;2022-10-31T09:56:41;2.90;;;1.30;;
76035;SDS011;64732;56.314;44.068;2022-10-31T09:59:04;3.28;;;1.27;;
76035;SDS011;64732;56.314;44.068;2022-10-31T10:01:33;2.38;;;1.13;;
76035;SDS011;64732;56.314;44.068;2022-10-31T10:03:59;2.83;;;1.93;;
76035;SDS011;64732;56.314;44.068;2022-10-31T10:06:27;3.08;;;1.35;;
76035;SDS011;64732;56.314;44.068;2022-10-31T10:08:49;7.43;;;1.65;;
76035;SDS011;64732;56.314;44.068;2022-10-31T10:11:26;2.83;;;1.10;;
76035;SDS011;64732;56.314;44.068;2022-10-31T10:14:05;2.92;;;1.40;;
76035;SDS011;64732;56.314;44.068;2022-10-31T10:16:40;3.17;;;1.83;;
76035;SDS011;64732;56.314;44.068;2022-10-31T10:19:17;2.67;;;1.08;;
76035;SDS011;64732;56.314;44.068;2022-10-31T10:21:48;4.90;;;2.10;;
76035;SDS011;64732;56.314;44.068;2022-10-31T10:24:17;4.00;;;1.55;;
76035;SDS011;64732;56.314;44.068;2022-10-31T10:26:49;2.30;;;1.10;;
76035;SDS011;64732;56.314;44.068;2022-10-31T10:29:17;2.58;;;1.25;;
76035;SDS011;64732;56.314;44.068;2022-10-31T10:31:50;2.33;;;1.33;;
76035;SDS011;64732;56.314;44.068;2022-10-31T10:34:13;3.22;;;1.25;;
76035;SDS011;64732;56.314;44.068;2022-10-31T10:36:39;2.63;;;1.30;;
76035;SDS011;64732;56.314;44.068;2022-10-31T10:39:04;5.43;;;1.45;;
76035;SDS011;64732;56.314;44.068;2022-10-31T10:41:29;2.85;;;1.17;;
76035;SDS011;64732;56.314;44.068;2022-10-31T10:43:55;3.13;;;1.30;;
76035;SDS011;64732;56.314;44.068;2022-10-31T10:46:19;5.20;;;1.10;;
76035;SDS011;64732;56.314;44.068;2022-10-31T10:48:45;2.45;;;1.10;;
76035;SDS011;64732;56.314;44.068;2022-10-31T10:51:14;2.08;;;1.17;;
76035;SDS011;64732;56.314;44.068;2022-10-31T10:56:06;2.42;;;1.30;;
76035;SDS011;64732;56.314;44.068;2022-10-31T10:58:31;5.45;;;1.20;;
76035;SDS011;64732;56.314;44.068;2022-10-31T11:00:52;5.95;;;1.20;;
76035;SDS011;64732;56.314;44.068;2022-10-31T11:03:15;2.67;;;1.20;;
76035;SDS011;64732;56.314;44.068;2022-10-31T11:05:41;3.90;;;1.20;;
76035;SDS011;64732;56.314;44.068;2022-10-31T11:08:05;2.00;;;1.00;;
76035;SDS011;64732;56.314;44.068;2022-10-31T11:10:27;2.88;;;1.27;;
76035;SDS011;64732;56.314;44.068;2022-10-31T11:12:58;3.55;;;1.50;;
76035;SDS011;64732;56.314;44.068;2022-10-31T11:15:22;3.22;;;1.73;;
76035;SDS011;64732;56.314;44.068;2022-10-31T11:17:47;3.30;;;1.73;;
76035;SDS011;64732;56.314;44.068;2022-10-31T11:20:22;3.10;;;1.70;;
76035;SDS011;64732;56.314;44.068;2022-10-31T11:22:48;2.20;;;1.17;;
76035;SDS011;64732;56.314;44.068;2022-10-31T11:25:20;2.53;;;1.33;;
76035;SDS011;64732;56.314;44.068;2022-10-31T11:27:41;2.42;;;1.25;;
76035;SDS011;64732;56.314;44.068;2022-10-31T11:30:06;2.28;;;0.95;;
76035;SDS011;64732;56.314;44.068;2022-10-31T11:32:29;4.10;;;1.35;;
76035;SDS011;64732;56.314;44.068;2022-10-31T11:34:51;2.78;;;0.80;;
76035;SDS011;64732;56.314;44.068;2022-10-31T11:37:13;7.20;;;1.42;;
76035;SDS011;64732;56.314;44.068;2022-10-31T11:39:38;3.47;;;1.13;;
76035;SDS011;64732;56.314;44.068;2022-10-31T11:42:01;2.10;;;1.13;;
76035;SDS011;64732;56.314;44.068;2022-10-31T11:44:23;2.10;;;1.20;;
76035;SDS011;64732;56.314;44.068;2022-10-31T11:46:46;3.38;;;1.50;;
76035;SDS011;64732;56.314;44.068;2022-10-31T11:49:13;3.60;;;1.48;;
76035;SDS011;64732;56.314;44.068;2022-10-31T11:51:36;3.00;;;1.23;;
76035;SDS011;64732;56.314;44.068;2022-10-31T11:53:58;3.25;;;1.40;;
76035;SDS011;64732;56.314;44.068;2022-10-31T11:56:22;3.15;;;1.58;;
76035;SDS011;64732;56.314;44.068;2022-10-31T11:58:43;3.47;;;1.85;;
76035;SDS011;64732;56.314;44.068;2022-10-31T12:01:04;3.08;;;1.85;;
76035;SDS011;64732;56.314;44.068;2022-10-31T12:03:40;4.38;;;1.73;;
76035;SDS011;64732;56.314;44.068;2022-10-31T12:06:05;4.22;;;2.10;;
76035;SDS011;64732;56.314;44.068;2022-10-31T12:08:28;4.18;;;2.17;;
76035;SDS011;64732;56.314;44.068;2022-10-31T12:10:51;3.35;;;1.90;;
76035;SDS011;64732;56.314;44.068;2022-10-31T12:13:26;5.72;;;2.55;;
76035;SDS011;64732;56.314;44.068;2022-10-31T12:15:53;4.60;;;2.53;;
76035;SDS011;64732;56.314;44.068;2022-10-31T12:18:29;3.65;;;2.20;;
76035;SDS011;64732;56.314;44.068;2022-10-31T12:21:11;3.75;;;2.08;;
76035;SDS011;64732;56.314;44.068;2022-10-31T12:23:40;6.07;;;2.40;;
76035;SDS011;64732;56.314;44.068;2022-10-31T12:26:09;5.32;;;2.53;;
76035;SDS011;64732;56.314;44.068;2022-10-31T12:31:32;4.72;;;1.95;;
76035;SDS011;64732;56.314;44.068;2022-10-31T12:33:58;3.13;;;1.75;;
76035;SDS011;64732;56.314;44.068;2022-10-31T12:36:45;4.28;;;2.20;;
76035;SDS011;64732;56.314;44.068;2022-10-31T12:39:16;4.32;;;2.42;;
76035;SDS011;64732;56.314;44.068;2022-10-31T12:41:45;4.45;;;1.90;;
76035;SDS011;64732;56.314;44.068;2022-10-31T12:44:12;2.08;;;1.02;;
76035;SDS011;64732;56.314;44.068;2022-10-31T12:46:44;3.30;;;1.90;;
76035;SDS011;64732;56.314;44.068;2022-10-31T12:49:33;3.40;;;2.03;;
76035;SDS011;64732;56.314;44.068;2022-10-31T12:52:03;3.35;;;2.20;;
76035;SDS011;64732;56.314;44.068;2022-10-31T12:54:39;2.78;;;1.10;;
76035;SDS011;64732;56.314;44.068;2022-10-31T12:57:13;4.03;;;2.30;;
76035;SDS011;64732;56.314;44.068;2022-10-31T12:59:42;4.55;;;1.88;;
76035;SDS011;64732;56.314;44.068;2022-10-31T13:02:10;4.30;;;2.00;;
76035;SDS011;64732;56.314;44.068;2022-10-31T13:04:36;3.92;;;2.05;;
76035;SDS011;64732;56.314;44.068;2022-10-31T13:07:02;3.22;;;1.65;;
76035;SDS011;64732;56.314;44.068;2022-10-31T13:09:26;3.67;;;2.15;;
76035;SDS011;64732;56.314;44.068;2022-10-31T13:11:52;4.35;;;2.40;;
76035;SDS011;64732;56.314;44.068;2022-10-31T13:14:18;4.03;;;2.30;;
76035;SDS011;64732;56.314;44.068;2022-10-31T13:16:47;4.63;;;2.45;;
76035;SDS011;64732;56.314;44.068;2022-10-31T13:19:09;4.03;;;2.33;;
76035;SDS011;64732;56.314;44.068;2022-10-31T13:21:35;5.47;;;2.90;;
76035;SDS011;64732;56.314;44.068;2022-10-31T13:23:58;5.85;;;2.60;;
76035;SDS011;64732;56.314;44.068;2022-10-31T13:26:23;3.65;;;2.20;;
76035;SDS011;64732;56.314;44.068;2022-10-31T13:28:52;4.80;;;1.92;;
76035;SDS011;64732;56.314;44.068;2022-10-31T13:31:16;3.40;;;1.90;;
76035;SDS011;64732;56.314;44.068;2022-10-31T13:33:41;3.50;;;2.17;;
76035;SDS011;64732;56.314;44.068;2022-10-31T13:36:12;3.03;;;1.70;;
76035;SDS011;64732;56.314;44.068;2022-10-31T13:38:41;5.18;;;2.30;;
76035;SDS011;64732;56.314;44.068;2022-10-31T13:41:11;5.00;;;2.35;;
76035;SDS011;64732;56.314;44.068;2022-10-31T13:43:39;4.28;;;2.38;;
76035;SDS011;64732;56.314;44.068;2022-10-31T13:46:23;3.80;;;2.33;;
76035;SDS011;64732;56.314;44.068;2022-10-31T13:48:47;3.45;;;2.17;;
76035;SDS011;64732;56.314;44.068;2022-10-31T13:51:09;3.45;;;2.00;;
76035;SDS011;64732;56.314;44.068;2022-10-31T13:53:41;2.72;;;1.50;;
76035;SDS011;64732;56.314;44.068;2022-10-31T13:56:10;4.80;;;2.20;;
76035;SDS011;64732;56.314;44.068;2022-10-31T14:00:58;3.17;;;1.98;;
76035;SDS011;64732;56.314;44.068;2022-10-31T14:03:22;3.90;;;1.95;;
76035;SDS011;64732;56.314;44.068;2022-10-31T14:05:54;2.70;;;1.70;;
76035;SDS011;64732;56.314;44.068;2022-10-31T14:08:17;2.67;;;1.50;;
76035;SDS011;64732;56.314;44.068;2022-10-31T14:10:45;3.47;;;2.13;;
76035;SDS011;64732;56.314;44.068;2022-10-31T14:13:08;6.38;;;2.47;;
76035;SDS011;64732;56.314;44.068;2022-10-31T14:15:34;3.70;;;2.08;;
76035;SDS011;64732;56.314;44.068;2022-10-31T14:17:57;4.22;;;2.38;;
76035;SDS011;64732;56.314;44.068;2022-10-31T14:20:21;3.10;;;1.63;;
76035;SDS011;64732;56.314;44.068;2022-10-31T14:22:57;3.85;;;1.95;;
76035;SDS011;64732;56.314;44.068;2022-10-31T14:25:28;4.72;;;1.92;;